Time;durP1;ratioP1;P1;durP2;ratioP2;P2;SDS_P1;SDS_P2;PMS_P1;PMS_P2;Temp;Humidity;BMP_temperature;BMP_pressure;BME280_temperature;BME280_humidity;BME280_pressure;Samples;Min_cycle;Max_cycle;Signal;HPM_P1;HPM_P2
2022/01/28 00:04:49;;;;;;;11.85;2.05;;;8.40;74.50;;;;;;5091606;28;20415;-60
2022/01/28 00:07:14;;;;;;;10.35;2.45;;;8.40;74.50;;;;;;5092925;28;20055;-60
2022/01/28 00:09:40;;;;;;;9.25;2.20;;;8.40;74.40;;;;;;5092546;28;20392;-59
2022/01/28 00:12:10;;;;;;;10.35;2.38;;;8.40;74.30;;;;;;5091791;28;20085;-58
2022/01/28 00:38:47;;;;;;;10.77;2.55;;;8.30;73.70;;;;;;5091662;28;20028;-58
2022/01/28 00:41:13;;;;;;;10.07;2.50;;;8.30;73.70;;;;;;5091088;28;20075;-60
2022/01/28 00:43:39;;;;;;;11.55;2.00;;;8.30;73.60;;;;;;5075332;28;20126;-59
2022/01/28 00:46:05;;;;;;;8.65;2.42;;;8.30;73.60;;;;;;5092690;28;20114;-59
2022/01/28 00:48:31;;;;;;;13.50;3.20;;;8.30;73.60;;;;;;5091834;28;20031;-59
2022/01/28 00:50:57;;;;;;;8.37;2.40;;;8.30;73.60;;;;;;5091982;28;20047;-59
2022/01/28 00:53:22;;;;;;;11.02;2.30;;;8.20;73.40;;;;;;5074924;28;20081;-57
2022/01/28 00:55:48;;;;;;;7.55;1.95;;;8.20;73.40;;;;;;5093103;28;20070;-60
2022/01/28 00:58:13;;;;;;;7.07;2.22;;;8.20;73.40;;;;;;5091881;28;20031;-57
2022/01/28 01:00:39;;;;;;;9.07;1.90;;;8.20;73.50;;;;;;5092507;28;20499;-60
2022/01/28 01:03:05;;;;;;;6.75;2.10;;;8.20;73.40;;;;;;5096138;28;20024;-59
2022/01/28 01:05:32;;;;;;;9.50;2.67;;;8.10;73.30;;;;;;5096195;28;20032;-60
2022/01/28 01:07:59;;;;;;;10.60;2.25;;;8.10;73.30;;;;;;5093340;28;20114;-59
2022/01/28 01:10:26;;;;;;;9.52;2.22;;;8.10;73.10;;;;;;5096056;28;20031;-60
2022/01/28 01:12:52;;;;;;;14.75;2.50;;;8.10;73.10;;;;;;5096388;28;20035;-57
2022/01/28 01:15:22;;;;;;;13.48;2.22;;;8.10;73.10;;;;;;5096190;28;20024;-59
2022/01/28 01:18:01;;;;;;;15.50;2.42;;;8.10;73.10;;;;;;5096382;28;20153;-60
2022/01/28 01:23:07;;;;;;;11.57;2.55;;;8.10;73.00;;;;;;5095684;28;20042;-60
2022/01/28 01:25:42;;;;;;;14.40;2.80;;;8.10;73.00;;;;;;5094319;28;20047;-59
2022/01/28 01:28:10;;;;;;;10.88;2.38;;;8.10;73.00;;;;;;5094603;28;20030;-56
2022/01/28 01:30:39;;;;;;;13.35;2.20;;;8.10;73.00;;;;;;5094390;28;20055;-60
2022/01/28 01:33:06;;;;;;;8.55;2.13;;;8.10;72.90;;;;;;5095713;28;20039;-59
2022/01/28 01:35:32;;;;;;;10.17;2.13;;;8.10;72.90;;;;;;5094702;28;20016;-59
2022/01/28 01:37:59;;;;;;;11.32;2.58;;;8.00;72.90;;;;;;5094982;28;20584;-59
2022/01/28 01:40:30;;;;;;;10.07;2.17;;;8.00;72.90;;;;;;5108894;28;20449;-60
2022/01/28 01:43:09;;;;;;;;;;;8.00;72.90;;;;;;5094523;28;20027;-60
2022/01/28 01:53:48;;;;;;;10.53;1.80;;;7.90;73.00;;;;;;5095677;28;20441;-58
2022/01/28 01:56:13;;;;;;;9.30;1.93;;;7.90;73.00;;;;;;5095769;28;20043;-58
2022/01/28 01:58:40;;;;;;;12.32;2.22;;;7.90;73.00;;;;;;5097347;28;20345;-59
2022/01/28 02:01:06;;;;;;;12.20;2.25;;;7.90;73.00;;;;;;5095730;28;20051;-59
2022/01/28 02:03:32;;;;;;;11.23;1.98;;;7.90;73.00;;;;;;5096134;28;20193;-58
2022/01/28 02:05:59;;;;;;;10.40;2.20;;;7.90;73.00;;;;;;5096383;28;20073;-59
2022/01/28 02:08:26;;;;;;;13.27;2.70;;;7.90;73.00;;;;;;5096647;28;20357;-58
2022/01/28 02:10:57;;;;;;;12.23;2.53;;;7.90;73.00;;;;;;5095859;28;20111;-58
2022/01/28 02:13:27;;;;;;;10.48;2.33;;;7.90;73.00;;;;;;5095846;28;20024;-60
2022/01/28 02:15:54;;;;;;;10.38;2.03;;;7.90;73.10;;;;;;5095261;28;20089;-58
2022/01/28 02:18:21;;;;;;;9.07;2.13;;;7.90;73.10;;;;;;5095089;28;20122;-58
2022/01/28 02:20:50;;;;;;;12.97;2.47;;;7.90;73.10;;;;;;5095528;28;20043;-58
2022/01/28 02:23:16;;;;;;;9.17;2.03;;;7.80;73.00;;;;;;5091968;28;20028;-58
2022/01/28 02:25:42;;;;;;;12.13;2.75;;;7.90;73.00;;;;;;5075143;28;20032;-60
2022/01/28 02:28:10;;;;;;;11.50;2.08;;;7.90;73.00;;;;;;5095774;28;20468;-58
2022/01/28 02:30:36;;;;;;;10.73;2.42;;;7.90;73.00;;;;;;5077654;28;20077;-59
2022/01/28 02:33:13;;;;;;;8.70;2.00;;;7.90;73.00;;;;;;5095201;28;20028;-57
2022/01/28 02:35:44;;;;;;;12.52;2.50;;;7.90;72.90;;;;;;5096125;28;20035;-58
2022/01/28 02:38:11;;;;;;;8.57;1.83;;;7.90;72.90;;;;;;5094748;28;20402;-59
2022/01/28 02:40:38;;;;;;;12.00;2.43;;;7.80;72.80;;;;;;5095248;28;20028;-59
2022/01/28 02:43:32;;;;;;;10.97;2.00;;;7.80;72.90;;;;;;5095844;28;20043;-60
2022/01/28 02:45:52;;;;;;;11.40;1.77;;;7.80;72.90;;;;;;5095302;28;20044;-60
2022/01/28 02:48:21;;;;;;;10.53;1.57;;;7.80;72.90;;;;;;5095588;28;20094;-59
2022/01/28 02:51:03;;;;;;;10.23;1.77;;;7.80;72.80;;;;;;5095514;28;20032;-59
2022/01/28 02:56:21;;;;;;;4.13;1.23;;;7.90;73.60;;;;;;5095090;28;20162;-59
2022/01/28 02:58:48;;;;;;;10.53;1.63;;;7.80;72.90;;;;;;5090550;28;20119;-59
2022/01/28 03:01:16;;;;;;;15.40;2.37;;;7.80;72.90;;;;;;5095651;28;20024;-60
2022/01/28 03:03:46;;;;;;;10.98;2.60;;;7.90;72.90;;;;;;5093993;28;20030;-58
2022/01/28 03:06:13;;;;;;;19.13;2.53;;;7.90;72.90;;;;;;5095125;28;20129;-60
2022/01/28 03:08:44;;;;;;;7.80;1.80;;;7.90;72.90;;;;;;5094903;28;20052;-59
2022/01/28 03:16:21;;;;;;;9.23;1.57;;;7.90;72.90;;;;;;5095032;28;20130;-60
2022/01/28 03:18:51;;;;;;;7.32;1.83;;;7.90;73.00;;;;;;5094887;28;20112;-60
2022/01/28 03:21:22;;;;;;;9.10;1.90;;;7.90;73.00;;;;;;5094054;28;20417;-60
2022/01/28 03:23:48;;;;;;;10.00;1.80;;;7.90;73.60;;;;;;5091091;28;20354;-61
2022/01/28 03:26:15;;;;;;;9.57;2.20;;;7.80;72.90;;;;;;5094682;28;20097;-60
2022/01/28 03:28:40;;;;;;;8.87;1.67;;;7.80;72.90;;;;;;5094448;28;20039;-60
2022/01/28 03:31:06;;;;;;;10.18;2.22;;;7.80;73.00;;;;;;5094644;28;20360;-60
2022/01/28 03:33:32;;;;;;;8.00;1.87;;;7.80;73.00;;;;;;5093877;28;20540;-59
2022/01/28 03:35:57;;;;;;;10.17;1.83;;;7.80;72.90;;;;;;5094636;28;20035;-60
2022/01/28 03:38:23;;;;;;;8.77;2.17;;;7.80;73.00;;;;;;5094758;28;20453;-60
2022/01/28 03:40:51;;;;;;;10.83;1.97;;;7.80;73.00;;;;;;5094121;28;20028;-58
2022/01/28 03:43:17;;;;;;;8.83;2.07;;;7.80;73.00;;;;;;5093699;28;20028;-60
2022/01/28 03:45:42;;;;;;;10.23;2.20;;;7.80;72.90;;;;;;5094817;28;20474;-60
2022/01/28 03:48:08;;;;;;;12.43;1.87;;;7.80;72.90;;;;;;5093344;28;20020;-60
2022/01/28 03:50:34;;;;;;;9.77;2.13;;;7.80;72.90;;;;;;5093657;28;20031;-60
2022/01/28 03:53:04;;;;;;;7.37;1.70;;;7.80;73.00;;;;;;5092735;28;20055;-60
2022/01/28 03:55:29;;;;;;;9.45;1.88;;;7.80;73.00;;;;;;5094673;28;20149;-60
2022/01/28 03:57:55;;;;;;;11.83;2.17;;;7.80;73.00;;;;;;5094119;28;20073;-59
2022/01/28 04:00:25;;;;;;;6.95;1.42;;;7.80;73.10;;;;;;5093624;28;20441;-60
2022/01/28 04:02:58;;;;;;;9.17;1.67;;;7.80;73.00;;;;;;5094223;28;20032;-59
2022/01/28 04:06:13;;;;;;;16.10;2.43;;;7.70;73.10;;;;;;5093821;28;20499;-58
2022/01/28 04:14:24;;;;;;;10.53;1.83;;;7.70;73.10;;;;;;5051969;28;20048;-59
2022/01/28 04:19:35;;;;;;;10.17;2.10;;;7.70;73.20;;;;;;5035500;28;20335;-60
2022/01/28 04:22:01;;;;;;;15.37;2.07;;;7.70;73.10;;;;;;5051500;28;20076;-59
2022/01/28 04:24:26;;;;;;;10.43;1.80;;;7.70;73.20;;;;;;5035496;28;20176;-59
2022/01/28 04:26:52;;;;;;;11.63;1.83;;;7.60;73.20;;;;;;5051895;28;20055;-60
2022/01/28 04:29:18;;;;;;;10.50;1.90;;;7.60;73.20;;;;;;5051752;28;20036;-60
2022/01/28 04:31:46;;;;;;;8.48;2.20;;;7.60;73.20;;;;;;5052999;28;20036;-60
2022/01/28 04:34:14;;;;;;;13.98;2.67;;;7.60;73.30;;;;;;5051990;28;20041;-59
2022/01/28 04:37:10;;;;;;;9.10;2.03;;;7.60;73.30;;;;;;5052864;28;20442;-60
2022/01/28 04:39:38;;;;;;;10.10;2.30;;;7.60;73.30;;;;;;5054946;28;20051;-60
2022/01/28 04:42:20;;;;;;;14.30;1.90;;;7.60;73.40;;;;;;5056311;28;20099;-59
2022/01/28 04:47:39;;;;;;;9.90;1.80;;;7.60;73.40;;;;;;5065884;28;20039;-59
2022/01/28 04:55:28;;;;;;;19.60;2.07;;;7.60;73.40;;;;;;5097316;28;20110;-59
2022/01/28 05:05:48;;;;;;;9.83;1.97;;;7.50;73.50;;;;;;5096277;28;20040;-60
2022/01/28 05:08:45;;;;;;;15.07;2.17;;;7.50;73.60;;;;;;5097558;28;20079;-59
2022/01/28 05:24:45;;;;;;;12.50;2.17;;;7.40;73.90;;;;;;5097664;28;20070;-59
2022/01/28 05:27:07;;;;;;;14.88;2.00;;;7.40;73.90;;;;;;5097687;28;20519;-59
2022/01/28 05:29:33;;;;;;;13.68;1.88;;;7.30;73.90;;;;;;5087056;28;20043;-59
2022/01/28 05:31:58;;;;;;;10.50;1.50;;;7.30;74.00;;;;;;5097043;28;20024;-59
2022/01/28 05:34:27;;;;;;;17.93;3.33;;;7.30;74.00;;;;;;5097232;28;20032;-59
2022/01/28 05:36:53;;;;;;;12.77;2.20;;;7.30;74.10;;;;;;5097611;28;20155;-60
2022/01/28 05:39:20;;;;;;;14.07;2.07;;;7.30;74.10;;;;;;5097092;28;20118;-60
2022/01/28 05:41:45;;;;;;;13.43;2.13;;;7.30;74.10;;;;;;5095791;28;20058;-59
2022/01/28 05:44:11;;;;;;;7.50;1.90;;;7.30;74.20;;;;;;5096941;28;20401;-58
2022/01/28 05:46:37;;;;;;;12.37;1.80;;;7.30;74.10;;;;;;5078540;28;20028;-59
2022/01/28 05:49:03;;;;;;;15.07;2.53;;;7.30;74.20;;;;;;5096173;28;20028;-59
2022/01/28 05:51:28;;;;;;;11.17;1.83;;;7.30;74.20;;;;;;5095531;28;20353;-59
2022/01/28 05:53:57;;;;;;;8.00;2.60;;;7.30;74.20;;;;;;5096839;28;20058;-59
2022/01/28 05:56:24;;;;;;;11.80;1.87;;;7.30;74.20;;;;;;5095569;28;20097;-58
2022/01/28 05:58:50;;;;;;;14.33;2.50;;;7.30;74.30;;;;;;5096805;28;20032;-58
2022/01/28 06:01:16;;;;;;;8.97;2.43;;;7.20;74.30;;;;;;5096199;28;20322;-60
2022/01/28 06:03:44;;;;;;;16.37;2.83;;;7.20;74.30;;;;;;5096843;28;20032;-59
2022/01/28 06:06:18;;;;;;;12.07;2.60;;;7.20;74.30;;;;;;5096551;28;20460;-60
2022/01/28 06:08:43;;;;;;;9.37;1.80;;;7.20;74.30;;;;;;5095940;28;20032;-58
2022/01/28 06:11:09;;;;;;;11.00;1.90;;;7.20;74.40;;;;;;5095193;28;20024;-60
2022/01/28 06:13:34;;;;;;;9.63;2.23;;;7.20;74.40;;;;;;5096341;28;20043;-59
2022/01/28 06:16:00;;;;;;;9.73;2.10;;;7.10;74.40;;;;;;5095378;28;20039;-60
2022/01/28 06:18:26;;;;;;;12.30;2.23;;;7.10;74.50;;;;;;5095911;28;20052;-59
2022/01/28 06:20:51;;;;;;;12.47;1.97;;;7.10;74.70;;;;;;5096083;28;20111;-60
2022/01/28 06:23:17;;;;;;;11.60;2.03;;;7.10;74.60;;;;;;5095796;28;20036;-59
2022/01/28 06:25:44;;;;;;;11.37;2.47;;;7.10;74.70;;;;;;5094579;28;20096;-59
2022/01/28 06:28:09;;;;;;;10.13;1.60;;;7.10;74.70;;;;;;5095918;28;20448;-60
2022/01/28 06:30:35;;;;;;;10.20;1.80;;;7.20;74.80;;;;;;5088362;28;20052;-60
2022/01/28 06:33:01;;;;;;;10.07;2.53;;;7.20;74.80;;;;;;5081154;28;20047;-59
2022/01/28 06:35:26;;;;;;;12.13;2.53;;;7.20;74.70;;;;;;5095880;28;20032;-59
2022/01/28 06:37:52;;;;;;;11.77;2.33;;;7.20;74.60;;;;;;5094680;28;20479;-59
2022/01/28 06:40:18;;;;;;;11.33;2.10;;;7.20;74.60;;;;;;5095704;28;20020;-60
2022/01/28 06:42:44;;;;;;;13.37;2.33;;;7.30;74.60;;;;;;5095838;28;20081;-59
2022/01/28 06:45:10;;;;;;;10.07;2.30;;;7.30;74.60;;;;;;5094364;28;20142;-59
2022/01/28 06:47:36;;;;;;;14.90;2.57;;;7.30;74.60;;;;;;5095829;28;20039;-59
2022/01/28 06:50:05;;;;;;;9.83;2.63;;;7.30;74.60;;;;;;5095618;28;20024;-59
2022/01/28 06:52:33;;;;;;;12.07;2.93;;;7.30;74.60;;;;;;5094879;28;20031;-59
2022/01/28 06:55:01;;;;;;;14.07;2.43;;;7.30;74.60;;;;;;5095469;28;20357;-58
2022/01/28 06:57:28;;;;;;;9.97;2.13;;;7.30;74.60;;;;;;5095688;28;20671;-58
2022/01/28 06:59:54;;;;;;;13.40;3.50;;;7.30;74.60;;;;;;5094819;28;20066;-59
2022/01/28 07:02:20;;;;;;;10.33;2.40;;;7.30;74.60;;;;;;5095868;28;20396;-59
2022/01/28 07:04:45;;;;;;;13.93;2.93;;;7.30;74.60;;;;;;5095858;28;20125;-58
2022/01/28 07:07:11;;;;;;;10.93;2.80;;;7.30;74.70;;;;;;5095493;28;20024;-58
2022/01/28 07:09:36;;;;;;;13.63;2.50;;;7.20;74.70;;;;;;5095530;28;20397;-60
2022/01/28 07:12:03;;;;;;;12.83;2.67;;;7.20;74.80;;;;;;5094976;28;20040;-59
2022/01/28 07:14:29;;;;;;;10.47;2.57;;;7.20;74.80;;;;;;5095758;28;20020;-59
2022/01/28 07:16:54;;;;;;;11.13;3.43;;;7.20;74.80;;;;;;5090287;28;20363;-54
2022/01/28 07:19:20;;;;;;;9.57;2.10;;;7.20;74.90;;;;;;5094842;28;20040;-58
2022/01/28 07:21:46;;;;;;;13.83;3.30;;;7.10;74.80;;;;;;5094504;28;20028;-57
2022/01/28 07:24:11;;;;;;;11.23;2.03;;;7.20;75.00;;;;;;5095012;28;20093;-58
2022/01/28 07:26:38;;;;;;;10.83;2.50;;;7.20;75.00;;;;;;5077270;28;20034;-59
2022/01/28 07:29:04;;;;;;;10.17;2.13;;;7.20;75.00;;;;;;5094731;28;20071;-61
2022/01/28 07:31:29;;;;;;;13.20;2.93;;;7.20;74.90;;;;;;5094100;28;20103;-60
2022/01/28 07:33:55;;;;;;;11.57;2.13;;;7.20;74.90;;;;;;5077531;28;20467;-60
2022/01/28 07:36:21;;;;;;;13.30;2.67;;;7.20;74.80;;;;;;5094727;28;20352;-60
2022/01/28 07:38:46;;;;;;;14.23;2.40;;;7.30;74.80;;;;;;5094706;28;20041;-60
2022/01/28 07:41:12;;;;;;;10.03;3.03;;;7.30;74.70;;;;;;5094289;28;20028;-60
2022/01/28 07:43:39;;;;;;;11.63;2.60;;;7.30;74.70;;;;;;5094135;28;20020;-60
2022/01/28 07:46:05;;;;;;;9.97;2.60;;;7.30;74.70;;;;;;5076848;28;20448;-60
2022/01/28 07:48:31;;;;;;;9.47;2.70;;;7.30;74.70;;;;;;5094777;28;20032;-60
2022/01/28 07:50:57;;;;;;;9.70;2.80;;;7.30;74.70;;;;;;5093206;28;20040;-60
2022/01/28 07:53:23;;;;;;;12.27;2.73;;;7.30;74.70;;;;;;5094583;28;20035;-60
2022/01/28 07:55:48;;;;;;;10.63;2.87;;;7.30;74.80;;;;;;5091976;28;20028;-60
2022/01/28 07:58:14;;;;;;;11.23;2.73;;;7.30;74.80;;;;;;5092924;28;20020;-59
2022/01/28 08:00:40;;;;;;;7.77;2.37;;;7.30;74.80;;;;;;5093120;28;20069;-59
2022/01/28 08:03:05;;;;;;;11.93;2.60;;;7.30;74.80;;;;;;5094432;28;20520;-60
2022/01/28 08:05:31;;;;;;;12.33;2.80;;;7.30;74.80;;;;;;5094108;28;20032;-60
2022/01/28 08:07:58;;;;;;;12.80;3.40;;;7.30;74.80;;;;;;5094249;28;20032;-61
2022/01/28 08:10:24;;;;;;;11.77;2.63;;;7.30;74.80;;;;;;5093065;28;20028;-60
2022/01/28 08:12:52;;;;;;;11.77;2.60;;;7.30;74.80;;;;;;5094456;28;20028;-60
2022/01/28 08:15:18;;;;;;;12.97;2.63;;;7.30;74.80;;;;;;5094769;28;20391;-60
2022/01/28 08:17:44;;;;;;;13.20;3.07;;;7.30;74.80;;;;;;5094638;28;20340;-60
2022/01/28 08:20:11;;;;;;;10.87;2.70;;;7.40;74.80;;;;;;5094388;28;20039;-60
2022/01/28 08:22:57;;;;;;;9.53;2.10;;;7.40;74.70;;;;;;5076393;28;20040;-60
2022/01/28 08:25:25;;;;;;;10.43;2.87;;;7.40;74.50;;;;;;5093202;28;20044;-60
2022/01/28 08:27:51;;;;;;;13.87;3.17;;;7.40;74.50;;;;;;5093729;28;20418;-59
2022/01/28 08:30:19;;;;;;;11.47;2.97;;;7.40;74.50;;;;;;5093357;28;20052;-59
2022/01/28 08:32:46;;;;;;;14.67;3.10;;;7.40;74.50;;;;;;5092720;28;20028;-60
2022/01/28 08:35:12;;;;;;;13.10;3.23;;;7.40;74.50;;;;;;5093956;28;20048;-60
2022/01/28 08:37:38;;;;;;;9.70;2.80;;;7.50;74.50;;;;;;5094571;28;20024;-59
2022/01/28 08:40:07;;;;;;;9.73;2.33;;;7.50;74.40;;;;;;5094048;28;20440;-60
2022/01/28 08:42:32;;;;;;;16.90;3.53;;;7.50;74.20;;;;;;5094146;28;20111;-61
2022/01/28 08:44:58;;;;;;;15.00;3.40;;;7.60;74.10;;;;;;5093004;28;20103;-61
2022/01/28 08:47:24;;;;;;;15.83;2.77;;;7.60;73.90;;;;;;5091965;28;20032;-59
2022/01/28 08:49:49;;;;;;;11.67;3.23;;;7.70;73.80;;;;;;5092722;28;20020;-60
2022/01/28 08:52:15;;;;;;;16.57;2.80;;;7.70;73.80;;;;;;5092255;28;20356;-60
2022/01/28 08:54:41;;;;;;;9.52;2.65;;;7.70;73.70;;;;;;5091749;28;20024;-61
2022/01/28 08:57:08;;;;;;;10.43;2.40;;;7.80;73.70;;;;;;5091086;28;20030;-61
2022/01/28 08:59:34;;;;;;;12.23;2.70;;;7.90;73.60;;;;;;5073144;28;20028;-61
2022/01/28 09:02:00;;;;;;;11.23;3.07;;;7.90;73.40;;;;;;5092456;28;20054;-60
2022/01/28 09:04:25;;;;;;;12.93;3.27;;;8.00;73.30;;;;;;5092047;28;20536;-61
2022/01/28 09:06:51;;;;;;;9.95;2.80;;;8.10;73.10;;;;;;5092889;28;20390;-60
2022/01/28 09:09:19;;;;;;;11.65;2.90;;;8.20;73.10;;;;;;5092481;28;20054;-59
2022/01/28 09:12:06;;;;;;;15.10;2.67;;;8.30;72.90;;;;;;5091923;28;20035;-60
2022/01/28 09:14:32;;;;;;;10.63;3.07;;;8.30;72.70;;;;;;5092079;28;20028;-61
2022/01/28 09:16:58;;;;;;;11.60;2.87;;;8.40;72.60;;;;;;5092117;28;20039;-60
2022/01/28 09:19:24;;;;;;;10.38;2.50;;;8.50;72.40;;;;;;5090251;28;20357;-59
2022/01/28 09:21:50;;;;;;;9.03;2.90;;;8.70;72.30;;;;;;5092998;28;20055;-60
2022/01/28 09:24:16;;;;;;;12.60;3.27;;;8.80;72.00;;;;;;5096149;28;20020;-61
2022/01/28 09:26:42;;;;;;;11.80;2.65;;;8.90;71.80;;;;;;5095330;28;20476;-60
2022/01/28 09:29:07;;;;;;;10.95;2.72;;;9.00;71.60;;;;;;5095642;28;20052;-61
2022/01/28 09:31:33;;;;;;;10.15;2.42;;;9.10;71.50;;;;;;5095422;28;20048;-61
2022/01/28 09:33:59;;;;;;;8.40;2.53;;;9.10;71.40;;;;;;5095316;28;20104;-60
2022/01/28 09:36:24;;;;;;;11.65;3.38;;;9.10;71.30;;;;;;5094931;28;20047;-60
2022/01/28 09:38:51;;;;;;;11.82;2.53;;;9.20;71.20;;;;;;5091093;28;20028;-60
2022/01/28 09:41:17;;;;;;;9.43;2.05;;;9.30;71.10;;;;;;5094390;28;20027;-60
2022/01/28 09:43:44;;;;;;;11.23;2.97;;;9.40;70.90;;;;;;5095411;28;20016;-60
2022/01/28 09:46:10;;;;;;;9.98;3.03;;;9.50;70.70;;;;;;5095310;28;20034;-60
2022/01/28 09:48:36;;;;;;;13.82;3.30;;;9.60;70.60;;;;;;5095500;28;20024;-60
2022/01/28 09:51:02;;;;;;;11.98;2.28;;;9.70;70.50;;;;;;5094844;28;20238;-60
2022/01/28 09:53:29;;;;;;;9.85;2.60;;;9.80;70.20;;;;;;5094146;28;20020;-61
2022/01/28 09:55:56;;;;;;;7.78;1.92;;;9.80;70.10;;;;;;5094534;28;20070;-60
2022/01/28 09:58:21;;;;;;;12.65;2.60;;;9.80;70.10;;;;;;5095051;28;20429;-60
2022/01/28 10:00:47;;;;;;;12.15;2.85;;;9.90;70.10;;;;;;5095408;28;20020;-60
2022/01/28 10:03:15;;;;;;;12.32;2.92;;;10.00;69.90;;;;;;5077397;28;20027;-60
2022/01/28 10:05:42;;;;;;;8.85;2.33;;;10.10;69.80;;;;;;5095283;28;20118;-60
2022/01/28 10:08:15;;;;;;;10.48;2.70;;;10.20;69.50;;;;;;5094526;28;20024;-60
2022/01/28 10:10:55;;;;;;;11.40;2.67;;;10.40;69.30;;;;;;5091902;28;20032;-60
2022/01/28 10:13:33;;;;;;;13.75;2.47;;;10.50;68.90;;;;;;5094758;28;20040;-60
2022/01/28 10:16:00;;;;;;;9.45;2.45;;;10.60;68.60;;;;;;5091361;28;20024;-60
2022/01/28 10:18:40;;;;;;;11.60;2.50;;;10.80;68.40;;;;;;5094494;28;20036;-60
2022/01/28 10:21:26;;;;;;;8.82;2.10;;;11.00;67.90;;;;;;5095139;28;20118;-60
2022/01/28 10:24:16;;;;;;;12.65;2.50;;;11.20;67.50;;;;;;5090701;28;20351;-60
2022/01/28 10:26:43;;;;;;;9.55;2.60;;;11.40;67.00;;;;;;5105693;28;20123;-60
2022/01/28 10:29:18;;;;;;;10.70;1.85;;;11.60;66.70;;;;;;5093620;28;20043;-60
2022/01/28 10:31:48;;;;;;;9.05;2.25;;;11.70;66.30;;;;;;5093063;28;20051;-60
2022/01/28 10:34:15;;;;;;;9.57;2.22;;;11.80;65.70;;;;;;5092682;28;20028;-60
2022/01/28 10:36:41;;;;;;;14.57;2.50;;;12.00;65.20;;;;;;5092881;28;20086;-60
2022/01/28 10:39:13;;;;;;;9.15;2.15;;;12.10;64.90;;;;;;5092981;28;20028;-59
2022/01/28 10:41:57;;;;;;;7.43;2.50;;;12.20;64.30;;;;;;5093305;28;20165;-60
2022/01/28 10:44:25;;;;;;;11.50;2.20;;;12.30;63.80;;;;;;5094219;28;20053;-61
2022/01/28 10:46:57;;;;;;;10.77;2.08;;;12.40;63.70;;;;;;5093062;28;20038;-61
2022/01/28 10:49:31;;;;;;;11.38;2.45;;;12.50;63.40;;;;;;5094146;28;20076;-60
2022/01/28 10:52:09;;;;;;;13.57;2.25;;;12.60;62.90;;;;;;5090431;28;20012;-61
2022/01/28 10:54:36;;;;;;;6.78;1.90;;;12.60;62.50;;;;;;5093607;28;21414;-60
2022/01/28 10:57:03;;;;;;;10.45;2.03;;;12.60;62.50;;;;;;5092807;28;20032;-60
2022/01/28 10:59:38;;;;;;;14.05;2.55;;;12.50;62.20;;;;;;5092058;28;20028;-60
2022/01/28 11:02:04;;;;;;;9.35;2.22;;;12.40;62.20;;;;;;5092232;28;20043;-61
2022/01/28 11:04:30;;;;;;;10.65;2.15;;;12.30;62.40;;;;;;5091787;28;20107;-61
2022/01/28 11:06:58;;;;;;;9.77;2.35;;;12.10;62.40;;;;;;5092260;28;20032;-61
2022/01/28 11:09:24;;;;;;;12.05;2.53;;;12.00;62.50;;;;;;5092807;28;20024;-61
2022/01/28 11:11:51;;;;;;;9.13;2.22;;;11.90;62.60;;;;;;5091911;28;20016;-58
2022/01/28 11:14:18;;;;;;;10.13;2.17;;;12.00;62.60;;;;;;5091971;28;20034;-60
2022/01/28 11:16:44;;;;;;;8.20;1.80;;;12.00;62.30;;;;;;5088252;28;20028;-60
2022/01/28 11:19:13;;;;;;;11.52;2.42;;;12.10;62.10;;;;;;5087199;28;20036;-60
2022/01/28 11:21:52;;;;;;;13.43;2.70;;;12.00;61.80;;;;;;5090924;28;20036;-60
2022/01/28 11:24:52;;;;;;;8.45;1.90;;;11.90;61.80;;;;;;5092094;28;20028;-60
2022/01/28 11:27:38;;;;;;;11.23;2.88;;;11.80;61.90;;;;;;5085767;28;20530;-61
2022/01/28 11:30:28;;;;;;;6.60;1.42;;;11.70;61.80;;;;;;5092147;28;20040;-61
2022/01/28 11:33:00;;;;;;;7.68;1.80;;;11.70;61.60;;;;;;5091951;28;20176;-60
2022/01/28 11:35:27;;;;;;;8.38;1.45;;;11.60;61.80;;;;;;5089907;28;20419;-60
2022/01/28 11:37:56;;;;;;;7.25;2.10;;;11.60;61.80;;;;;;5074340;28;20118;-59
2022/01/28 11:40:23;;;;;;;6.47;1.83;;;11.70;61.40;;;;;;5092124;28;20121;-60
2022/01/28 11:42:48;;;;;;;8.05;2.25;;;11.70;61.00;;;;;;5091431;28;20039;-60
2022/01/28 11:45:14;;;;;;;5.22;1.48;;;11.80;60.90;;;;;;5090765;28;20024;-61
2022/01/28 11:47:54;;;;;;;10.07;2.25;;;11.70;60.80;;;;;;5090517;28;20486;-60
2022/01/28 11:50:22;;;;;;;8.32;2.30;;;11.80;60.50;;;;;;5091942;28;20020;-60
2022/01/28 11:52:53;;;;;;;10.60;2.30;;;11.80;60.50;;;;;;5091422;28;20027;-60
2022/01/28 11:55:23;;;;;;;9.02;1.83;;;11.90;60.40;;;;;;5090823;28;20365;-60
2022/01/28 11:58:11;;;;;;;5.68;1.35;;;11.80;60.30;;;;;;5090865;28;20321;-60
2022/01/28 12:00:43;;;;;;;6.97;1.58;;;11.90;60.00;;;;;;5092983;28;20032;-60
2022/01/28 12:03:17;;;;;;;7.75;2.03;;;11.80;60.70;;;;;;5091719;28;20044;-59
2022/01/28 12:05:54;;;;;;;8.57;2.22;;;11.80;59.90;;;;;;5092275;28;20043;-60
2022/01/28 12:08:21;;;;;;;5.38;1.55;;;11.80;60.10;;;;;;5074694;28;20032;-60
2022/01/28 12:10:49;;;;;;;11.88;2.08;;;11.70;60.30;;;;;;5090660;28;20095;-60
2022/01/28 12:13:17;;;;;;;11.80;2.20;;;11.70;60.50;;;;;;5089590;28;20040;-60
2022/01/28 12:16:03;;;;;;;9.23;2.08;;;11.70;60.70;;;;;;5092773;28;20029;-61
2022/01/28 12:18:48;;;;;;;7.85;1.70;;;11.60;60.50;;;;;;5093148;28;20028;-60
2022/01/28 12:21:18;;;;;;;8.82;1.85;;;11.60;60.80;;;;;;5086798;28;20421;-60
2022/01/28 12:23:45;;;;;;;9.13;1.88;;;11.50;60.80;;;;;;5091468;28;20073;-60
2022/01/28 12:26:16;;;;;;;8.30;1.83;;;11.50;60.80;;;;;;5090285;28;20074;-59
2022/01/28 12:28:44;;;;;;;8.57;2.08;;;11.50;60.80;;;;;;5077577;28;20445;-60
2022/01/28 12:31:19;;;;;;;6.88;1.70;;;11.50;60.70;;;;;;5093463;28;20047;-60
2022/01/28 12:33:47;;;;;;;6.97;2.03;;;11.60;60.70;;;;;;5095086;28;20044;-60
2022/01/28 12:36:18;;;;;;;5.93;1.75;;;11.60;60.50;;;;;;5093034;28;20161;-59
2022/01/28 12:41:55;;;;;;;7.97;1.75;;;11.70;60.50;;;;;;5053043;28;20091;-60
2022/01/28 12:44:22;;;;;;;6.03;1.92;;;11.60;60.40;;;;;;5052123;28;20033;-61
2022/01/28 12:46:56;;;;;;;5.00;1.52;;;11.70;60.60;;;;;;5052324;28;20079;-60
2022/01/28 12:49:26;;;;;;;6.97;1.50;;;11.70;60.50;;;;;;5035702;28;20055;-60
2022/01/28 12:51:55;;;;;;;6.28;2.08;;;11.60;60.40;;;;;;5042834;28;20044;-60
2022/01/28 12:54:42;;;;;;;7.47;1.80;;;11.60;60.50;;;;;;5044708;28;20087;-61
2022/01/28 12:57:12;;;;;;;5.63;1.55;;;11.60;60.40;;;;;;5044436;28;20037;-60
2022/01/28 12:59:39;;;;;;;9.10;1.92;;;11.50;60.50;;;;;;5035334;28;20078;-60
2022/01/28 13:02:06;;;;;;;5.03;1.23;;;11.50;60.70;;;;;;5055209;28;20044;-59
2022/01/28 13:09:52;;;;;;;8.20;2.00;;;11.50;60.80;;;;;;5056274;28;20037;-60
2022/01/28 13:12:25;;;;;;;8.60;2.08;;;11.50;61.00;;;;;;5055951;28;20120;-60
2022/01/28 13:14:50;;;;;;;7.78;2.05;;;11.40;61.00;;;;;;5055855;28;20438;-60
2022/01/28 13:17:24;;;;;;;9.15;1.92;;;11.40;61.10;;;;;;5059848;28;20186;-60
2022/01/28 13:20:03;;;;;;;9.50;1.92;;;11.30;61.20;;;;;;5060226;28;20028;-60
2022/01/28 13:22:31;;;;;;;14.60;2.83;;;11.30;61.40;;;;;;5077565;28;20035;-59
2022/01/28 13:24:59;;;;;;;9.10;1.80;;;11.30;61.60;;;;;;5096077;28;20028;-61
2022/01/28 13:27:42;;;;;;;6.90;2.25;;;11.20;61.70;;;;;;5097445;28;20023;-60
2022/01/28 13:30:16;;;;;;;5.85;1.48;;;11.20;61.80;;;;;;5097229;28;20032;-59
2022/01/28 13:32:45;;;;;;;7.65;1.80;;;11.20;61.80;;;;;;5096950;28;20169;-60
2022/01/28 13:35:13;;;;;;;6.57;1.90;;;11.20;61.80;;;;;;5096448;28;20029;-59
2022/01/28 13:37:44;;;;;;;6.97;1.50;;;11.30;61.70;;;;;;5097262;28;20034;-60
2022/01/28 13:40:29;;;;;;;7.57;2.17;;;11.30;61.60;;;;;;5095953;28;20036;-60
2022/01/28 13:43:06;;;;;;;7.93;2.17;;;11.30;61.50;;;;;;5097054;28;20464;-61
2022/01/28 13:45:39;;;;;;;6.65;1.45;;;11.30;61.40;;;;;;5093723;28;20085;-60
2022/01/28 13:48:08;;;;;;;8.15;1.40;;;11.20;61.30;;;;;;5097568;28;20456;-60
2022/01/28 13:50:41;;;;;;;12.02;1.70;;;11.20;61.40;;;;;;5095839;28;20055;-59
2022/01/28 13:56:02;;;;;;;7.95;1.38;;;11.10;61.60;;;;;;5097001;28;20110;-59
2022/01/28 13:58:48;;;;;;;4.57;1.33;;;11.10;61.80;;;;;;5082059;28;20127;-59
2022/01/28 14:01:15;;;;;;;7.30;1.80;;;11.10;61.90;;;;;;5095426;28;20452;-59
2022/01/28 14:03:59;;;;;;;7.78;1.65;;;11.00;62.00;;;;;;5095646;28;20035;-59
2022/01/28 14:06:35;;;;;;;9.18;2.20;;;10.90;62.00;;;;;;5078789;28;20035;-60
2022/01/28 14:09:10;;;;;;;7.07;1.42;;;10.80;62.30;;;;;;5077232;28;20032;-61
2022/01/28 14:11:53;;;;;;;8.63;1.63;;;10.80;62.60;;;;;;5093657;28;20551;-60
2022/01/28 14:14:23;;;;;;;7.03;1.63;;;10.80;62.60;;;;;;5095333;28;20035;-57
2022/01/28 14:16:56;;;;;;;6.82;1.67;;;10.80;62.70;;;;;;5094850;28;20380;-60
2022/01/28 14:19:22;;;;;;;9.52;1.73;;;10.80;62.70;;;;;;5092942;28;20115;-61
2022/01/28 14:21:49;;;;;;;7.07;2.05;;;10.70;62.80;;;;;;5092644;28;20138;-61
2022/01/28 14:24:21;;;;;;;6.28;1.80;;;10.70;62.90;;;;;;5094023;28;20043;-61
2022/01/28 14:31:55;;;;;;;9.75;1.80;;;10.70;63.00;;;;;;5090967;28;20041;-61
2022/01/28 14:34:22;;;;;;;6.97;2.58;;;10.70;63.10;;;;;;5092450;28;20472;-60
2022/01/28 14:36:49;;;;;;;7.55;2.58;;;10.70;63.10;;;;;;5092275;28;20031;-60
2022/01/28 14:39:16;;;;;;;10.10;2.60;;;10.70;63.10;;;;;;5093856;28;20073;-61